Time;durP1;ratioP1;P1;durP2;ratioP2;P2;SDS_P1;SDS_P2;PMS_P1;PMS_P2;Temp;Humidity;BMP_temperature;BMP_pressure;BME280_temperature;BME280_humidity;BME280_pressure;Samples;Min_cycle;Max_cycle;Signal;HPM_P1;HPM_P2
2021/08/23 00:00:54;;;;;;;;;;;24.80;47.70;;;;;;8364452;28;19913;-48
2021/08/23 00:04:55;;;;;;;;;;;24.80;47.70;;;;;;8367736;28;19940;-48
2021/08/23 00:08:55;;;;;;;;;;;24.80;47.70;;;;;;8367159;28;19920;-48
2021/08/23 00:12:56;;;;;;;;;;;24.80;47.70;;;;;;8367276;28;19913;-47
2021/08/23 00:16:56;;;;;;;;;;;24.80;47.70;;;;;;8367939;28;20313;-47
2021/08/23 00:21:03;;;;;;;;;;;24.80;47.70;;;;;;8366557;28;20431;-48
2021/08/23 00:25:03;;;;;;;;;;;24.80;47.70;;;;;;8366992;28;19917;-49
2021/08/23 00:29:04;;;;;;;;;;;24.80;47.70;;;;;;8366556;28;19913;-48
2021/08/23 00:33:05;;;;;;;;;;;24.80;47.70;;;;;;8367112;28;19951;-51
2021/08/23 00:37:05;;;;;;;;;;;24.80;47.70;;;;;;8367140;28;19917;-48
2021/08/23 00:41:06;;;;;;;;;;;24.80;47.70;;;;;;8365962;28;20015;-49
2021/08/23 00:45:06;;;;;;;;;;;24.80;47.70;;;;;;8366419;28;19923;-48
2021/08/23 00:49:08;;;;;;;;;;;24.80;47.70;;;;;;8366138;28;20285;-50
2021/08/23 00:53:08;;;;;;;;;;;24.70;47.60;;;;;;8366078;28;19924;-48
2021/08/23 00:57:09;;;;;;;;;;;24.70;47.60;;;;;;8366110;28;19923;-47
2021/08/23 01:01:18;;;;;;;;;;;24.70;47.60;;;;;;8365679;28;20016;-47
2021/08/23 01:05:22;;;;;;;;;;;24.70;47.60;;;;;;8365333;28;19917;-47
2021/08/23 01:09:24;;;;;;;;;;;24.70;47.60;;;;;;8365648;28;19925;-47
2021/08/23 01:13:25;;;;;;;;;;;24.70;47.60;;;;;;8365245;28;19919;-48
2021/08/23 01:17:25;;;;;;;;;;;24.70;47.60;;;;;;8364657;28;19948;-47
2021/08/23 01:21:28;;;;;;;;;;;24.60;47.60;;;;;;8364616;28;20297;-47
2021/08/23 01:25:29;;;;;;;;;;;24.60;47.60;;;;;;8364914;28;19923;-47
2021/08/23 01:29:43;;;;;;;;;;;24.60;47.60;;;;;;8364490;28;19913;-47
2021/08/23 01:33:44;;;;;;;;;;;24.60;47.60;;;;;;8364421;28;19999;-47
2021/08/23 01:37:45;;;;;;;;;;;24.60;47.50;;;;;;8364664;28;20015;-48
2021/08/23 01:41:46;;;;;;;;;;;24.60;47.60;;;;;;8363631;28;20348;-47
2021/08/23 01:45:46;;;;;;;;;;;24.60;47.50;;;;;;8364138;28;20358;-47
2021/08/23 01:49:46;;;;;;;;;;;24.60;47.50;;;;;;8364926;28;20274;-47
2021/08/23 01:53:47;;;;;;;;;;;24.50;47.50;;;;;;8363603;28;19947;-48
2021/08/23 01:57:47;;;;;;;;;;;24.60;47.60;;;;;;8363914;28;19917;-48
2021/08/23 02:01:48;;;;;;;;;;;24.50;47.50;;;;;;8363660;28;19925;-49
2021/08/23 02:05:48;;;;;;;;;;;24.60;47.50;;;;;;8363910;28;19935;-51
2021/08/23 02:09:49;;;;;;;;;;;24.50;47.40;;;;;;8363736;28;20373;-47
2021/08/23 02:13:49;;;;;;;;;;;24.50;47.50;;;;;;8363535;28;19938;-47
2021/08/23 02:17:50;;;;;;;;;;;24.50;47.50;;;;;;8363018;28;20289;-48
2021/08/23 02:21:55;;;;;;;;;;;24.50;47.50;;;;;;8363794;28;19920;-46
2021/08/23 02:25:55;;;;;;;;;;;24.50;47.50;;;;;;8363798;28;19917;-48
2021/08/23 02:29:56;;;;;;;;;;;24.50;47.50;;;;;;8362425;28;19917;-46
2021/08/23 02:33:56;;;;;;;;;;;24.50;47.50;;;;;;8362669;28;20354;-47
2021/08/23 02:37:57;;;;;;;;;;;24.50;47.40;;;;;;8362526;28;20428;-46
2021/08/23 02:41:57;;;;;;;;;;;24.50;47.40;;;;;;8362814;28;19947;-47
2021/08/23 02:45:57;;;;;;;;;;;24.40;47.40;;;;;;8362636;28;19917;-47
2021/08/23 02:49:58;;;;;;;;;;;24.50;47.50;;;;;;8362681;28;19919;-47
2021/08/23 02:53:59;;;;;;;;;;;24.40;47.40;;;;;;8362142;28;19978;-47
2021/08/23 02:57:59;;;;;;;;;;;24.40;47.40;;;;;;8363607;28;19920;-47
2021/08/23 03:02:00;;;;;;;;;;;24.40;47.40;;;;;;8362547;28;20431;-48
2021/08/23 03:06:00;;;;;;;;;;;24.40;47.40;;;;;;8362797;28;19920;-47
2021/08/23 03:10:01;;;;;;;;;;;24.40;47.30;;;;;;8362737;28;19925;-48
2021/08/23 03:14:02;;;;;;;;;;;24.40;47.30;;;;;;8362131;28;19917;-47
2021/08/23 03:18:02;;;;;;;;;;;24.30;47.30;;;;;;8363069;28;19917;-47
2021/08/23 03:22:03;;;;;;;;;;;24.30;47.30;;;;;;8362267;28;19983;-47
2021/08/23 03:26:04;;;;;;;;;;;24.30;47.30;;;;;;8361976;28;20316;-47
2021/08/23 03:30:05;;;;;;;;;;;24.30;47.30;;;;;;8362425;28;19952;-47
2021/08/23 03:34:08;;;;;;;;;;;24.30;47.30;;;;;;8362816;28;19963;-47
2021/08/23 03:38:09;;;;;;;;;;;24.30;47.30;;;;;;8367368;28;19963;-47
2021/08/23 03:42:09;;;;;;;;;;;24.30;47.30;;;;;;8368217;28;20014;-47
2021/08/23 03:46:10;;;;;;;;;;;24.30;47.30;;;;;;8368292;28;20344;-47
2021/08/23 03:50:10;;;;;;;;;;;24.30;47.30;;;;;;8367999;28;20278;-47
2021/08/23 03:54:11;;;;;;;;;;;24.30;47.30;;;;;;8368215;28;20003;-47
2021/08/23 03:58:11;;;;;;;;;;;24.30;47.30;;;;;;8367675;28;20411;-47
2021/08/23 04:02:11;;;;;;;;;;;24.30;47.20;;;;;;8367162;28;19940;-47
2021/08/23 04:06:12;;;;;;;;;;;24.20;47.30;;;;;;8367566;28;19928;-47
2021/08/23 04:10:12;;;;;;;;;;;24.20;47.20;;;;;;8368391;28;19927;-47
2021/08/23 04:14:13;;;;;;;;;;;24.20;47.20;;;;;;8366918;28;20007;-47
2021/08/23 04:18:14;;;;;;;;;;;24.20;47.20;;;;;;8367140;28;20384;-46
2021/08/23 04:22:14;;;;;;;;;;;24.20;47.20;;;;;;8367002;28;20439;-47
2021/08/23 04:26:15;;;;;;;;;;;24.20;47.20;;;;;;8367198;28;20281;-48
2021/08/23 04:30:15;;;;;;;;;;;24.20;47.20;;;;;;8367011;28;19917;-47
2021/08/23 04:34:16;;;;;;;;;;;24.20;47.20;;;;;;8366773;28;20382;-47
2021/08/23 04:38:16;;;;;;;;;;;24.10;47.10;;;;;;8366097;28;19999;-46
2021/08/23 04:42:17;;;;;;;;;;;24.10;47.20;;;;;;8366842;28;19921;-48
2021/08/23 04:46:18;;;;;;;;;;;24.10;47.20;;;;;;8366258;28;19944;-48
2021/08/23 04:50:18;;;;;;;;;;;24.10;47.20;;;;;;8365506;28;19912;-49
2021/08/23 04:54:19;;;;;;;;;;;24.10;47.10;;;;;;8365955;28;19916;-49
2021/08/23 04:58:21;;;;;;;;;;;24.10;47.10;;;;;;8366042;28;20400;-47
2021/08/23 05:02:21;;;;;;;;;;;24.10;47.20;;;;;;8366144;28;20436;-47
2021/08/23 05:06:22;;;;;;;;;;;24.10;47.10;;;;;;8366054;28;19921;-49
2021/08/23 05:10:22;;;;;;;;;;;24.10;47.10;;;;;;8365707;28;19921;-47
2021/08/23 05:14:23;;;;;;;;;;;24.10;47.20;;;;;;8365094;28;19924;-47
2021/08/23 05:18:23;;;;;;;;;;;24.10;47.10;;;;;;8366002;28;19913;-48
2021/08/23 05:22:24;;;;;;;;;;;24.00;47.10;;;;;;8365251;28;19960;-48
2021/08/23 05:26:25;;;;;;;;;;;24.00;47.10;;;;;;8364634;28;20378;-47
2021/08/23 05:30:25;;;;;;;;;;;24.00;47.10;;;;;;8365178;28;19921;-47
2021/08/23 05:34:26;;;;;;;;;;;24.00;47.10;;;;;;8364986;28;19913;-48
2021/08/23 05:38:26;;;;;;;;;;;24.00;47.10;;;;;;8365041;28;19955;-47
2021/08/23 05:42:27;;;;;;;;;;;24.00;47.10;;;;;;8364487;28;19969;-47
2021/08/23 05:46:27;;;;;;;;;;;24.00;47.10;;;;;;8364474;28;20016;-46
2021/08/23 05:50:28;;;;;;;;;;;24.00;47.10;;;;;;8363851;28;20360;-47
2021/08/23 05:54:28;;;;;;;;;;;24.00;47.10;;;;;;8364943;28;19913;-46
2021/08/23 05:58:29;;;;;;;;;;;24.00;47.10;;;;;;8363988;28;19931;-46
2021/08/23 06:02:30;;;;;;;;;;;24.00;47.10;;;;;;8363517;28;19929;-47
2021/08/23 06:06:32;;;;;;;;;;;24.00;47.00;;;;;;8364116;28;19917;-47
2021/08/23 06:10:32;;;;;;;;;;;24.00;47.00;;;;;;8364355;28;19925;-47
2021/08/23 06:14:33;;;;;;;;;;;24.00;47.00;;;;;;8363131;28;19923;-49
2021/08/23 06:18:33;;;;;;;;;;;24.00;47.00;;;;;;8363813;28;20391;-46
2021/08/23 06:22:36;;;;;;;;;;;24.00;47.00;;;;;;8363423;28;20397;-46
2021/08/23 06:26:37;;;;;;;;;;;23.90;47.00;;;;;;8362838;28;20467;-47
2021/08/23 06:30:38;;;;;;;;;;;24.00;47.10;;;;;;8363948;28;19913;-47
2021/08/23 06:34:38;;;;;;;;;;;24.00;47.10;;;;;;8363399;28;19975;-48
2021/08/23 06:38:38;;;;;;;;;;;24.00;47.10;;;;;;8362671;28;19923;-48
2021/08/23 06:42:39;;;;;;;;;;;23.90;47.00;;;;;;8363129;28;19921;-47
2021/08/23 06:46:39;;;;;;;;;;;24.00;47.10;;;;;;8363794;28;19917;-49
2021/08/23 06:50:40;;;;;;;;;;;24.00;47.10;;;;;;8362298;28;20377;-47
2021/08/23 06:54:40;;;;;;;;;;;24.00;47.10;;;;;;8362349;28;20345;-50
2021/08/23 06:58:41;;;;;;;;;;;24.00;47.10;;;;;;8361048;28;19913;-50
2021/08/23 07:02:42;;;;;;;;;;;24.00;47.10;;;;;;8360780;28;19952;-47
2021/08/23 07:06:42;;;;;;;;;;;24.00;47.00;;;;;;8361260;28;19932;-52
2021/08/23 07:10:43;;;;;;;;;;;24.00;47.00;;;;;;8362645;28;20356;-47
2021/08/23 07:14:43;;;;;;;;;;;24.00;47.00;;;;;;8367008;28;19917;-47
2021/08/23 07:18:43;;;;;;;;;;;24.00;47.00;;;;;;8367803;28;20015;-48
2021/08/23 07:22:44;;;;;;;;;;;24.00;47.00;;;;;;8367848;28;19948;-48
2021/08/23 07:26:44;;;;;;;;;;;24.00;47.00;;;;;;8366966;28;20327;-48
2021/08/23 07:30:45;;;;;;;;;;;24.00;47.00;;;;;;8367622;28;20334;-48
2021/08/23 07:34:46;;;;;;;;;;;24.00;47.00;;;;;;8368608;28;19917;-48
2021/08/23 07:38:46;;;;;;;;;;;24.10;47.00;;;;;;8368759;28;19916;-48
2021/08/23 07:42:47;;;;;;;;;;;24.10;47.00;;;;;;8368246;28;20016;-47
2021/08/23 07:46:47;;;;;;;;;;;24.10;47.10;;;;;;8368342;28;19916;-50
2021/08/23 07:50:48;;;;;;;;;;;24.10;47.10;;;;;;8365549;28;19931;-49
2021/08/23 07:54:48;;;;;;;;;;;24.10;47.10;;;;;;8365423;28;19917;-48
2021/08/23 07:58:48;;;;;;;;;;;24.10;47.10;;;;;;8368424;28;19916;-48
2021/08/23 08:02:49;;;;;;;;;;;24.00;47.10;;;;;;8367173;28;19925;-47
2021/08/23 08:06:50;;;;;;;;;;;24.10;47.20;;;;;;8367708;28;20377;-50
2021/08/23 08:10:50;;;;;;;;;;;24.00;47.10;;;;;;8367556;28;19917;-48
2021/08/23 08:14:51;;;;;;;;;;;24.10;47.20;;;;;;8364728;28;19917;-47
2021/08/23 08:18:54;;;;;;;;;;;24.10;47.20;;;;;;8364958;28;19963;-48
2021/08/23 08:22:55;;;;;;;;;;;24.10;47.20;;;;;;8366485;28;20011;-48
2021/08/23 08:26:55;;;;;;;;;;;24.10;47.20;;;;;;8366315;28;19921;-48
2021/08/23 08:30:56;;;;;;;;;;;24.10;47.20;;;;;;8367508;28;20372;-47
2021/08/23 08:34:56;;;;;;;;;;;24.10;47.20;;;;;;8365545;28;19917;-47
2021/08/23 08:38:57;;;;;;;;;;;24.10;47.20;;;;;;8365813;28;19924;-48
2021/08/23 08:42:57;;;;;;;;;;;24.10;47.20;;;;;;8366663;28;20374;-47
2021/08/23 08:46:58;;;;;;;;;;;24.20;47.30;;;;;;8366389;28;19913;-47
2021/08/23 08:50:58;;;;;;;;;;;24.20;47.20;;;;;;8366333;28;20365;-48
2021/08/23 08:54:59;;;;;;;;;;;24.20;47.20;;;;;;8365706;28;19928;-48
2021/08/23 08:59:00;;;;;;;;;;;24.20;47.20;;;;;;8366268;28;20286;-47
2021/08/23 09:03:00;;;;;;;;;;;24.20;47.20;;;;;;8365331;28;19925;-49
2021/08/23 09:07:02;;;;;;;;;;;24.20;47.20;;;;;;8366441;28;20361;-48
2021/08/23 09:11:08;;;;;;;;;;;24.20;47.20;;;;;;8365269;28;19995;-49
2021/08/23 09:15:09;;;;;;;;;;;24.30;47.20;;;;;;8365337;28;19970;-51
2021/08/23 09:19:20;;;;;;;;;;;24.30;47.30;;;;;;8365454;28;20427;-47
2021/08/23 09:23:20;;;;;;;;;;;24.30;47.40;;;;;;8364818;28;19921;-48
2021/08/23 09:27:21;;;;;;;;;;;24.30;47.20;;;;;;8365111;28;19919;-50
2021/08/23 09:31:25;;;;;;;;;;;24.30;47.20;;;;;;8364849;28;19978;-50
2021/08/23 09:35:29;;;;;;;;;;;24.30;47.20;;;;;;8363673;28;20692;-48
2021/08/23 09:39:31;;;;;;;;;;;24.30;47.10;;;;;;8363683;28;19916;-49
2021/08/23 09:43:33;;;;;;;;;;;24.30;47.10;;;;;;8362342;28;19978;-49
2021/08/23 09:47:34;;;;;;;;;;;24.40;47.10;;;;;;8361176;28;20370;-50
2021/08/23 09:51:41;;;;;;;;;;;24.40;47.20;;;;;;8364307;28;19921;-49
2021/08/23 09:55:43;;;;;;;;;;;24.40;47.10;;;;;;8357588;28;20445;-51
2021/08/23 09:59:44;;;;;;;;;;;24.40;47.10;;;;;;8355441;28;20014;-49
2021/08/23 10:03:44;;;;;;;;;;;24.50;47.20;;;;;;8359679;28;19925;-49
2021/08/23 10:07:46;;;;;;;;;;;24.40;47.00;;;;;;8357047;28;19921;-48
2021/08/23 10:11:46;;;;;;;;;;;24.50;47.00;;;;;;8362117;28;20010;-51
2021/08/23 10:15:47;;;;;;;;;;;24.50;47.00;;;;;;8363540;28;19921;-52
2021/08/23 10:19:49;;;;;;;;;;;24.50;47.00;;;;;;8364210;28;20289;-51
2021/08/23 10:23:50;;;;;;;;;;;24.50;47.00;;;;;;8362848;28;19960;-51
2021/08/23 10:27:50;;;;;;;;;;;24.50;46.90;;;;;;8363356;28;20012;-51
2021/08/23 10:31:51;;;;;;;;;;;24.50;46.90;;;;;;8363285;28;19916;-49
2021/08/23 10:35:53;;;;;;;;;;;24.50;46.90;;;;;;8363375;28;20003;-49
2021/08/23 10:39:58;;;;;;;;;;;24.60;46.90;;;;;;8363658;28;19917;-49
2021/08/23 10:44:00;;;;;;;;;;;24.60;46.90;;;;;;8362887;28;19929;-51
2021/08/23 10:48:11;;;;;;;;;;;24.60;46.80;;;;;;8362860;28;19917;-48
2021/08/23 10:52:13;;;;;;;;;;;24.60;46.70;;;;;;8362791;28;20000;-52
2021/08/23 10:56:21;;;;;;;;;;;24.60;46.70;;;;;;8363107;28;20058;-48
2021/08/23 11:00:21;;;;;;;;;;;24.60;46.60;;;;;;8363026;28;20387;-52
2021/08/23 11:04:29;;;;;;;;;;;24.70;46.60;;;;;;8362668;28;19924;-49
2021/08/23 11:08:29;;;;;;;;;;;24.70;46.60;;;;;;8362448;28;19921;-49
2021/08/23 11:12:48;;;;;;;;;;;24.70;46.60;;;;;;8362377;28;20035;-48
2021/08/23 11:16:52;;;;;;;;;;;24.70;46.50;;;;;;8362917;28;19917;-48
2021/08/23 11:20:53;;;;;;;;;;;24.70;46.50;;;;;;8361832;28;20378;-51
2021/08/23 11:24:53;;;;;;;;;;;24.80;46.50;;;;;;8362171;28;20023;-49
2021/08/23 11:28:54;;;;;;;;;;;24.80;46.50;;;;;;8362229;28;19992;-52
2021/08/23 11:32:54;;;;;;;;;;;24.80;46.50;;;;;;8362485;28;19917;-51
2021/08/23 11:37:02;;;;;;;;;;;24.80;46.40;;;;;;8362186;28;20421;-51
2021/08/23 11:41:04;;;;;;;;;;;24.80;46.40;;;;;;8361574;28;19966;-49
2021/08/23 11:45:05;;;;;;;;;;;24.80;46.30;;;;;;8362282;28;19925;-48
2021/08/23 11:49:05;;;;;;;;;;;24.80;46.40;;;;;;8361982;28;19960;-52
2021/08/23 11:53:11;;;;;;;;;;;24.80;46.30;;;;;;8362014;28;19917;-49
2021/08/23 11:57:11;;;;;;;;;;;24.80;46.30;;;;;;8364658;28;20441;-52
2021/08/23 12:01:12;;;;;;;;;;;24.80;46.90;;;;;;8367682;28;19913;-49
2021/08/23 12:05:14;;;;;;;;;;;24.80;46.40;;;;;;8367326;28;19928;-49
2021/08/23 12:09:18;;;;;;;;;;;24.90;46.50;;;;;;8368437;28;19952;-48
2021/08/23 12:13:20;;;;;;;;;;;24.90;46.50;;;;;;8367695;28;19916;-49
2021/08/23 12:17:27;;;;;;;;;;;24.90;46.30;;;;;;8366833;28;19951;-49
2021/08/23 12:21:28;;;;;;;;;;;24.90;46.40;;;;;;8367097;28;19917;-49
2021/08/23 12:25:30;;;;;;;;;;;24.90;46.40;;;;;;8366372;28;21285;-48
2021/08/23 12:29:36;;;;;;;;;;;24.90;46.30;;;;;;8367317;28;20380;-49
2021/08/23 12:33:36;;;;;;;;;;;25.00;46.40;;;;;;8367136;28;20012;-49
2021/08/23 12:37:36;;;;;;;;;;;24.90;46.20;;;;;;8366905;28;20353;-50
2021/08/23 12:41:38;;;;;;;;;;;24.90;46.30;;;;;;8366268;28;19970;-47
2021/08/23 12:45:38;;;;;;;;;;;24.90;46.30;;;;;;8367422;28;19913;-48
2021/08/23 12:49:38;;;;;;;;;;;24.90;46.30;;;;;;8366357;28;19921;-47
2021/08/23 12:53:43;;;;;;;;;;;24.90;46.30;;;;;;8365964;28;19951;-46
2021/08/23 12:57:44;;;;;;;;;;;24.90;46.40;;;;;;8366059;28;19917;-49
2021/08/23 13:01:44;;;;;;;;;;;24.90;46.40;;;;;;8365783;28;19967;-49
2021/08/23 13:05:45;;;;;;;;;;;24.90;46.40;;;;;;8366366;28;19920;-47
2021/08/23 13:09:45;;;;;;;;;;;24.90;46.40;;;;;;8364824;28;19929;-47
2021/08/23 13:13:46;;;;;;;;;;;24.90;46.40;;;;;;8365641;28;19924;-48
2021/08/23 13:17:46;;;;;;;;;;;24.90;46.40;;;;;;8364915;28;19917;-51
2021/08/23 13:21:47;;;;;;;;;;;24.90;46.40;;;;;;8365834;28;19921;-50
2021/08/23 13:25:47;;;;;;;;;;;24.90;46.40;;;;;;8365238;28;20351;-47
2021/08/23 13:29:48;;;;;;;;;;;24.90;46.40;;;;;;8364665;28;20328;-50
2021/08/23 13:33:49;;;;;;;;;;;25.00;46.30;;;;;;8365285;28;19917;-50
2021/08/23 13:37:49;;;;;;;;;;;25.00;46.30;;;;;;8365635;28;19919;-49
2021/08/23 13:41:50;;;;;;;;;;;25.00;46.40;;;;;;8364632;28;20417;-47
2021/08/23 13:45:51;;;;;;;;;;;25.00;46.40;;;;;;8364984;28;19992;-47
2021/08/23 13:49:51;;;;;;;;;;;25.00;46.30;;;;;;8364434;28;20421;-51
2021/08/23 13:53:51;;;;;;;;;;;24.90;46.40;;;;;;8363971;28;19936;-48
2021/08/23 13:57:52;;;;;;;;;;;25.00;46.40;;;;;;8364987;28;19971;-48
2021/08/23 14:01:53;;;;;;;;;;;24.90;46.40;;;;;;8364095;28;19936;-47
2021/08/23 14:05:53;;;;;;;;;;;25.00;46.50;;;;;;8363473;28;19917;-46
2021/08/23 14:09:54;;;;;;;;;;;24.90;46.50;;;;;;8363719;28;19928;-46
2021/08/23 14:13:57;;;;;;;;;;;24.90;46.50;;;;;;8364408;28;19913;-46
2021/08/23 14:17:57;;;;;;;;;;;24.90;46.60;;;;;;8363128;28;19960;-46
2021/08/23 14:21:58;;;;;;;;;;;24.90;46.60;;;;;;8363347;28;19925;-47
2021/08/23 14:25:58;;;;;;;;;;;24.90;46.60;;;;;;8363402;28;19963;-49
2021/08/23 14:29:59;;;;;;;;;;;24.90;46.70;;;;;;8363105;28;19916;-47
2021/08/23 14:33:59;;;;;;;;;;;24.90;46.60;;;;;;8363471;28;19982;-48
2021/08/23 14:38:00;;;;;;;;;;;24.90;46.70;;;;;;8363070;28;20007;-47
2021/08/23 14:42:00;;;;;;;;;;;24.90;46.70;;;;;;8363346;28;19959;-49
2021/08/23 14:46:00;;;;;;;;;;;24.90;46.60;;;;;;8362807;28;19924;-47
2021/08/23 14:50:01;;;;;;;;;;;24.90;46.60;;;;;;8363100;28;19913;-47
2021/08/23 14:54:04;;;;;;;;;;;24.90;46.70;;;;;;8362479;28;20298;-50
2021/08/23 14:58:05;;;;;;;;;;;24.90;46.70;;;;;;8362734;28;19917;-47
2021/08/23 15:02:06;;;;;;;;;;;24.90;46.70;;;;;;8362042;28;20331;-47
2021/08/23 15:06:06;;;;;;;;;;;24.90;46.80;;;;;;8363512;28;19974;-48
2021/08/23 15:10:08;;;;;;;;;;;24.90;46.90;;;;;;8362720;28;19921;-48
2021/08/23 15:14:08;;;;;;;;;;;24.90;46.90;;;;;;8361978;28;19913;-47
2021/08/23 15:18:09;;;;;;;;;;;24.90;47.00;;;;;;8362243;28;19945;-49
2021/08/23 15:22:09;;;;;;;;;;;24.90;46.90;;;;;;8362155;28;19921;-49
2021/08/23 15:26:10;;;;;;;;;;;24.90;47.00;;;;;;8362474;28;19979;-48
2021/08/23 15:30:11;;;;;;;;;;;24.90;47.00;;;;;;8362456;28;19971;-47
2021/08/23 15:34:11;;;;;;;;;;;24.90;47.00;;;;;;8368370;28;19913;-47
2021/08/23 15:38:13;;;;;;;;;;;24.90;47.00;;;;;;8367992;28;19917;-48
2021/08/23 15:42:14;;;;;;;;;;;24.90;47.00;;;;;;8369348;28;20405;-49
2021/08/23 15:46:15;;;;;;;;;;;24.80;47.00;;;;;;8368169;28;20007;-47
2021/08/23 15:50:15;;;;;;;;;;;24.90;47.10;;;;;;8367704;28;19936;-48
2021/08/23 15:54:16;;;;;;;;;;;24.80;47.10;;;;;;8368352;28;19913;-49
2021/08/23 15:58:17;;;;;;;;;;;24.90;47.10;;;;;;8368591;28;19923;-48
2021/08/23 16:02:17;;;;;;;;;;;24.80;47.10;;;;;;8367362;28;19925;-47
2021/08/23 16:06:18;;;;;;;;;;;24.80;47.10;;;;;;8367912;28;19917;-48
2021/08/23 16:10:18;;;;;;;;;;;24.80;47.10;;;;;;8367383;28;19940;-47
2021/08/23 16:14:18;;;;;;;;;;;24.90;47.20;;;;;;8367191;28;20012;-49
2021/08/23 16:18:19;;;;;;;;;;;24.80;47.10;;;;;;8368135;28;20042;-48
2021/08/23 16:22:19;;;;;;;;;;;24.80;47.10;;;;;;8367117;28;19978;-48
2021/08/23 16:26:20;;;;;;;;;;;24.80;47.20;;;;;;8366660;28;19925;-48
2021/08/23 16:30:20;;;;;;;;;;;24.80;47.20;;;;;;8355830;28;19940;-48
2021/08/23 16:34:21;;;;;;;;;;;24.80;47.20;;;;;;8353798;28;20362;-50
2021/08/23 16:38:22;;;;;;;;;;;24.80;47.20;;;;;;8366407;28;19917;-49
2021/08/23 16:42:22;;;;;;;;;;;24.80;47.20;;;;;;8366338;28;19959;-47
2021/08/23 16:46:23;;;;;;;;;;;24.80;47.20;;;;;;8366539;28;19960;-48
2021/08/23 16:50:23;;;;;;;;;;;24.80;47.20;;;;;;8366269;28;19945;-48
2021/08/23 16:54:25;;;;;;;;;;;24.80;47.20;;;;;;8366961;28;19917;-47
2021/08/23 16:58:27;;;;;;;;;;;24.80;47.20;;;;;;8366220;28;20384;-48
2021/08/23 17:02:28;;;;;;;;;;;24.80;47.10;;;;;;8365403;28;19931;-48
2021/08/23 17:06:28;;;;;;;;;;;24.80;47.10;;;;;;8365993;28;19999;-51
2021/08/23 17:10:29;;;;;;;;;;;24.80;47.20;;;;;;8366753;28;20012;-47
2021/08/23 17:14:29;;;;;;;;;;;24.80;47.40;;;;;;8365140;28;19917;-48
2021/08/23 17:18:30;;;;;;;;;;;24.80;47.20;;;;;;8365533;28;19917;-47
2021/08/23 17:22:30;;;;;;;;;;;24.80;47.20;;;;;;8365302;28;19936;-47
2021/08/23 17:26:31;;;;;;;;;;;24.80;47.10;;;;;;8365579;28;19924;-47
2021/08/23 17:30:31;;;;;;;;;;;24.80;47.10;;;;;;8365320;28;19924;-49
2021/08/23 17:34:32;;;;;;;;;;;24.80;47.10;;;;;;8365271;28;20381;-48
2021/08/23 17:38:32;;;;;;;;;;;24.80;47.20;;;;;;8364449;28;19917;-48
2021/08/23 17:42:33;;;;;;;;;;;24.80;47.20;;;;;;8364518;28;20277;-48
2021/08/23 17:46:33;;;;;;;;;;;24.80;47.20;;;;;;8365337;28;20313;-50
2021/08/23 17:50:34;;;;;;;;;;;24.80;47.20;;;;;;8363899;28;20332;-50
2021/08/23 17:54:35;;;;;;;;;;;24.80;47.30;;;;;;8363961;28;19920;-49
2021/08/23 17:58:35;;;;;;;;;;;24.80;47.30;;;;;;8362904;28;19924;-47
2021/08/23 18:02:36;;;;;;;;;;;24.80;47.30;;;;;;8364238;28;20383;-49
2021/08/23 18:06:36;;;;;;;;;;;24.80;47.30;;;;;;8364188;28;19924;-48
2021/08/23 18:10:38;;;;;;;;;;;24.80;47.30;;;;;;8364024;28;19921;-48
2021/08/23 18:14:38;;;;;;;;;;;24.80;47.30;;;;;;8363384;28;19971;-49
2021/08/23 18:18:39;;;;;;;;;;;24.70;47.30;;;;;;8364362;28;19912;-52
2021/08/23 18:22:39;;;;;;;;;;;24.70;47.30;;;;;;8363287;28;19948;-48
2021/08/23 18:26:39;;;;;;;;;;;24.70;47.30;;;;;;8362970;28;19940;-48
2021/08/23 18:30:40;;;;;;;;;;;24.70;47.30;;;;;;8363204;28;20289;-47
2021/08/23 18:34:40;;;;;;;;;;;24.70;47.30;;;;;;8363125;28;20419;-48
2021/08/23 18:38:41;;;;;;;;;;;24.70;47.30;;;;;;8363390;28;19913;-49
2021/08/23 18:42:41;;;;;;;;;;;24.70;47.30;;;;;;8360842;28;20317;-47
2021/08/23 18:46:42;;;;;;;;;;;24.70;47.30;;;;;;8362800;28;19916;-50
2021/08/23 18:50:42;;;;;;;;;;;24.70;47.30;;;;;;8362365;28;20285;-50
2021/08/23 18:54:42;;;;;;;;;;;24.70;47.30;;;;;;8363698;28;20313;-48
2021/08/23 18:58:43;;;;;;;;;;;24.70;47.30;;;;;;8362698;28;19924;-49
2021/08/23 19:02:43;;;;;;;;;;;24.60;47.30;;;;;;8361995;28;19972;-49
2021/08/23 19:06:44;;;;;;;;;;;24.60;47.30;;;;;;8364654;28;19920;-49
2021/08/23 19:10:45;;;;;;;;;;;24.60;47.30;;;;;;8370088;28;19913;-48
2021/08/23 19:14:45;;;;;;;;;;;24.60;47.30;;;;;;8368667;28;19997;-48
2021/08/23 19:18:46;;;;;;;;;;;24.60;47.30;;;;;;8369482;28;20008;-49
2021/08/23 19:22:46;;;;;;;;;;;24.70;47.40;;;;;;8368945;28;19925;-50
2021/08/23 19:26:47;;;;;;;;;;;24.60;47.30;;;;;;8368502;28;19924;-53
2021/08/23 19:30:48;;;;;;;;;;;24.60;47.30;;;;;;8369729;28;19992;-48
2021/08/23 19:34:48;;;;;;;;;;;24.60;47.30;;;;;;8368652;28;20302;-48
2021/08/23 19:38:49;;;;;;;;;;;24.60;47.30;;;;;;8368124;28;19945;-50
2021/08/23 19:42:49;;;;;;;;;;;24.60;47.40;;;;;;8368226;28;19925;-50
2021/08/23 19:46:50;;;;;;;;;;;24.60;47.40;;;;;;8368980;28;20011;-49
2021/08/23 19:50:50;;;;;;;;;;;24.60;47.40;;;;;;8367674;28;19917;-49
2021/08/23 19:54:51;;;;;;;;;;;24.60;47.40;;;;;;8368189;28;19917;-50
2021/08/23 19:58:51;;;;;;;;;;;24.60;47.40;;;;;;8367957;28;20015;-48
2021/08/23 20:02:52;;;;;;;;;;;24.50;47.30;;;;;;8367596;28;19921;-47
2021/08/23 20:06:54;;;;;;;;;;;24.60;47.40;;;;;;8368282;28;19913;-47
2021/08/23 20:10:54;;;;;;;;;;;24.60;47.40;;;;;;8367747;28;20000;-48
2021/08/23 20:14:54;;;;;;;;;;;24.60;47.40;;;;;;8366815;28;19917;-50
2021/08/23 20:18:55;;;;;;;;;;;24.50;47.30;;;;;;8366417;28;20613;-51
2021/08/23 20:22:55;;;;;;;;;;;24.60;47.40;;;;;;8367830;28;19921;-48
2021/08/23 20:26:57;;;;;;;;;;;24.50;47.40;;;;;;8366496;28;19982;-49
2021/08/23 20:30:57;;;;;;;;;;;24.60;47.40;;;;;;8366999;28;20007;-49
2021/08/23 20:35:00;;;;;;;;;;;24.50;47.40;;;;;;8366636;28;19917;-49
2021/08/23 20:39:01;;;;;;;;;;;24.50;47.30;;;;;;8367313;28;19913;-48
2021/08/23 20:43:05;;;;;;;;;;;24.60;47.40;;;;;;8366422;28;19951;-48
2021/08/23 20:47:05;;;;;;;;;;;24.50;47.30;;;;;;8365850;28;19917;-47
2021/08/23 20:51:06;;;;;;;;;;;24.50;47.30;;;;;;8366552;28;19978;-48
2021/08/23 20:55:08;;;;;;;;;;;24.50;47.40;;;;;;8366191;28;19931;-47
2021/08/23 20:59:09;;;;;;;;;;;24.50;47.40;;;;;;8366506;28;19913;-48
2021/08/23 21:03:09;;;;;;;;;;;24.50;47.40;;;;;;8365616;28;19932;-48
2021/08/23 21:07:10;;;;;;;;;;;24.50;47.40;;;;;;8365902;28;20208;-47
2021/08/23 21:11:10;;;;;;;;;;;24.50;47.40;;;;;;8365215;28;19952;-47
2021/08/23 21:15:11;;;;;;;;;;;24.50;47.40;;;;;;8366493;28;19913;-47
2021/08/23 21:19:11;;;;;;;;;;;24.50;47.40;;;;;;8365548;28;19917;-49
2021/08/23 21:23:12;;;;;;;;;;;24.50;47.40;;;;;;8364620;28;19924;-47
2021/08/23 21:27:12;;;;;;;;;;;24.50;47.40;;;;;;8365238;28;19968;-47
2021/08/23 21:31:13;;;;;;;;;;;24.40;47.30;;;;;;8364855;28;19919;-51
2021/08/23 21:35:13;;;;;;;;;;;24.40;47.30;;;;;;8364872;28;19925;-49
2021/08/23 21:39:14;;;;;;;;;;;24.40;47.40;;;;;;8365193;28;19921;-48
2021/08/23 21:43:14;;;;;;;;;;;24.40;47.40;;;;;;8364534;28;19925;-49
2021/08/23 21:47:15;;;;;;;;;;;24.40;47.40;;;;;;8351292;28;19967;-49
2021/08/23 21:51:15;;;;;;;;;;;24.40;47.40;;;;;;8365601;28;19920;-48
2021/08/23 21:55:16;;;;;;;;;;;24.40;47.40;;;;;;8364366;28;19955;-49
2021/08/23 21:59:16;;;;;;;;;;;24.40;47.30;;;;;;8363827;28;19917;-48
2021/08/23 22:03:17;;;;;;;;;;;24.40;47.40;;;;;;8363430;28;20290;-48
2021/08/23 22:07:17;;;;;;;;;;;24.40;47.40;;;;;;8364383;28;20000;-49
2021/08/23 22:11:18;;;;;;;;;;;24.40;47.40;;;;;;8362511;28;19939;-48
2021/08/23 22:15:19;;;;;;;;;;;24.30;47.30;;;;;;8364001;28;20366;-49
2021/08/23 22:19:19;;;;;;;;;;;24.30;47.40;;;;;;8363809;28;20285;-49
2021/08/23 22:23:20;;;;;;;;;;;24.30;47.30;;;;;;8363106;28;19929;-48
2021/08/23 22:27:21;;;;;;;;;;;24.30;47.30;;;;;;8364009;28;19919;-47
2021/08/23 22:31:21;;;;;;;;;;;24.30;47.30;;;;;;8363579;28;19939;-47
2021/08/23 22:35:21;;;;;;;;;;;24.30;47.30;;;;;;8362797;28;19927;-48
2021/08/23 22:39:22;;;;;;;;;;;24.30;47.40;;;;;;8363244;28;20018;-48
2021/08/23 22:43:23;;;;;;;;;;;24.30;47.30;;;;;;8363745;28;19921;-47
2021/08/23 22:47:24;;;;;;;;;;;24.30;47.40;;;;;;8362628;28;19924;-46
2021/08/23 22:51:25;;;;;;;;;;;24.30;47.30;;;;;;8363084;28;20384;-48
2021/08/23 22:55:25;;;;;;;;;;;24.30;47.30;;;;;;8362791;28;19920;-47
2021/08/23 22:59:26;;;;;;;;;;;24.30;47.30;;;;;;8362989;28;19916;-47
2021/08/23 23:03:28;;;;;;;;;;;24.30;47.30;;;;;;8362597;28;19925;-47
2021/08/23 23:07:29;;;;;;;;;;;24.30;47.40;;;;;;8362785;28;19920;-51
2021/08/23 23:11:29;;;;;;;;;;;24.30;47.40;;;;;;8362164;28;19962;-52
2021/08/23 23:15:30;;;;;;;;;;;24.30;47.30;;;;;;8362362;28;19913;-47
2021/08/23 23:19:30;;;;;;;;;;;24.20;47.30;;;;;;8363169;28;20247;-50